Time;durP1;ratioP1;P1;durP2;ratioP2;P2;SDS_P1;SDS_P2;PMS_P1;PMS_P2;Temp;Humidity;BMP_temperature;BMP_pressure;BME280_temperature;BME280_humidity;BME280_pressure;Samples;Min_cycle;Max_cycle;Signal;HPM_P1;HPM_P2
2023/02/12 00:01:14;;;;;;;0.65;0.65;;;15.10;61.50;;;;;;5047394;28;20094;-6
2023/02/12 00:03:40;;;;;;;0.90;0.90;;;15.10;61.60;;;;;;5047634;28;20040;-20
2023/02/12 00:06:06;;;;;;;0.80;0.80;;;15.10;61.50;;;;;;5048809;28;20502;-18
2023/02/12 00:08:32;;;;;;;0.90;0.90;;;15.00;61.60;;;;;;5049188;28;20141;-10
2023/02/12 00:10:57;;;;;;;0.77;0.77;;;15.10;61.70;;;;;;5047048;28;20620;-20
2023/02/12 00:13:23;;;;;;;1.08;1.08;;;15.10;61.50;;;;;;5046201;28;20044;-11
2023/02/12 00:15:49;;;;;;;0.93;0.93;;;15.10;61.30;;;;;;5045971;28;20080;-18
2023/02/12 00:18:14;;;;;;;1.05;1.05;;;15.10;61.40;;;;;;5046768;28;20401;-6
2023/02/12 00:20:40;;;;;;;1.10;1.10;;;15.00;61.60;;;;;;5047663;28;20070;-9
2023/02/12 00:23:06;;;;;;;1.05;1.05;;;15.10;61.40;;;;;;5047546;28;20178;-14
2023/02/12 00:25:31;;;;;;;0.90;0.90;;;15.00;61.50;;;;;;5046588;28;20744;-8
2023/02/12 00:27:57;;;;;;;0.88;0.88;;;15.00;61.40;;;;;;5045466;28;20136;-5
2023/02/12 00:30:23;;;;;;;0.85;0.85;;;15.00;61.50;;;;;;5047182;28;20857;-7
2023/02/12 00:32:48;;;;;;;0.88;0.88;;;14.90;61.60;;;;;;5047626;28;20051;-11
2023/02/12 00:35:14;;;;;;;0.80;0.80;;;14.90;61.90;;;;;;5046862;28;20398;-25
2023/02/12 00:37:40;;;;;;;1.10;1.10;;;15.00;61.70;;;;;;5046980;28;20063;-18
2023/02/12 00:40:06;;;;;;;1.10;1.10;;;15.00;61.60;;;;;;5045534;28;20507;-15
2023/02/12 00:42:32;;;;;;;0.93;0.93;;;14.90;61.60;;;;;;5046910;28;20349;-6
2023/02/12 00:44:57;;;;;;;0.90;0.90;;;15.00;61.60;;;;;;5046237;28;20044;-13
2023/02/12 00:47:23;;;;;;;1.00;1.00;;;15.00;61.70;;;;;;5046112;28;20483;-5
2023/02/12 00:49:49;;;;;;;0.98;0.98;;;14.90;61.80;;;;;;5045837;28;20037;-6
2023/02/12 00:52:14;;;;;;;1.05;1.05;;;14.80;61.90;;;;;;5046374;28;20048;-13
2023/02/12 00:54:40;;;;;;;1.27;1.27;;;14.90;61.90;;;;;;5046396;28;20127;-13
2023/02/12 00:57:05;;;;;;;0.98;0.98;;;14.80;61.90;;;;;;5048184;28;20474;-10
2023/02/12 00:59:31;;;;;;;1.20;1.10;;;14.90;61.90;;;;;;5050941;28;20040;-11
2023/02/12 01:01:56;;;;;;;1.10;1.10;;;14.90;61.60;;;;;;5045750;28;20040;-7
2023/02/12 01:04:22;;;;;;;1.15;1.15;;;14.90;61.80;;;;;;5046493;28;20187;-5
2023/02/12 01:06:48;;;;;;;1.00;1.00;;;14.80;61.90;;;;;;5050669;28;20494;-10
2023/02/12 01:09:13;;;;;;;0.93;0.93;;;14.80;61.90;;;;;;5051701;28;20100;-16
2023/02/12 01:11:40;;;;;;;0.95;0.95;;;14.80;61.90;;;;;;5050640;28;20524;-20
2023/02/12 01:14:05;;;;;;;1.08;1.08;;;14.80;61.70;;;;;;5051260;28;20044;-26
2023/02/12 01:16:32;;;;;;;1.10;1.10;;;14.80;61.90;;;;;;5051318;28;20051;-6
2023/02/12 01:18:58;;;;;;;1.00;1.00;;;14.80;61.90;;;;;;5041162;28;20051;-27
2023/02/12 01:21:25;;;;;;;1.05;1.05;;;14.80;61.80;;;;;;5049614;28;20087;-21
2023/02/12 01:23:51;;;;;;;1.02;1.02;;;14.90;61.80;;;;;;5050153;28;20046;-15
2023/02/12 01:26:17;;;;;;;0.93;0.93;;;14.90;61.60;;;;;;5050728;28;20106;-22
2023/02/12 01:28:43;;;;;;;1.00;1.00;;;14.90;61.50;;;;;;5049341;28;20091;-14
2023/02/12 01:31:10;;;;;;;1.20;1.20;;;14.90;61.60;;;;;;5050559;28;20080;-7
2023/02/12 01:33:35;;;;;;;1.15;1.15;;;14.80;61.70;;;;;;5048463;28;20079;-13
2023/02/12 01:36:01;;;;;;;1.00;1.00;;;14.80;61.70;;;;;;5049649;28;20533;-14
2023/02/12 01:38:27;;;;;;;0.95;0.95;;;14.90;61.70;;;;;;5050532;28;20159;-10
2023/02/12 01:40:52;;;;;;;1.10;1.10;;;14.90;61.70;;;;;;5050195;28;20044;-18
2023/02/12 01:43:18;;;;;;;1.20;1.20;;;14.90;61.50;;;;;;5049236;28;20045;-16
2023/02/12 01:45:46;;;;;;;1.30;1.30;;;14.90;61.30;;;;;;5049627;28;20387;-12
2023/02/12 01:48:13;;;;;;;0.98;0.98;;;14.90;61.40;;;;;;5051631;28;20036;-11
2023/02/12 01:50:38;;;;;;;1.10;1.10;;;14.90;61.50;;;;;;5048543;28;20049;-19
2023/02/12 01:53:04;;;;;;;1.00;1.00;;;14.90;61.50;;;;;;5053641;28;20415;-8
2023/02/12 01:55:30;;;;;;;0.90;0.90;;;14.90;61.50;;;;;;5049710;28;20041;-12
2023/02/12 01:57:55;;;;;;;1.38;1.30;;;14.80;61.50;;;;;;5038928;28;20049;-23
2023/02/12 02:00:22;;;;;;;1.05;1.05;;;14.80;61.60;;;;;;5049046;28;20055;-20
2023/02/12 02:02:55;;;;;;;0.88;0.88;;;14.80;61.60;;;;;;5052591;28;20525;-14
2023/02/12 02:05:36;;;;;;;0.90;0.90;;;14.80;61.70;;;;;;5050143;28;20128;-13
2023/02/12 02:08:02;;;;;;;1.00;1.00;;;14.80;62.60;;;;;;5040849;28;20621;-45
2023/02/12 02:10:29;;;;;;;1.08;1.08;;;14.80;61.70;;;;;;5048037;28;20044;-48
2023/02/12 02:15:39;;;;;;;0.93;0.93;;;14.80;61.50;;;;;;5052248;28;20043;-48
2023/02/12 02:18:21;;;;;;;1.10;1.10;;;14.90;61.40;;;;;;5048919;28;20666;-42
2023/02/12 02:21:05;;;;;;;1.00;1.00;;;14.80;61.50;;;;;;5010425;28;20120;-38
2023/02/12 02:23:42;;;;;;;0.90;0.90;;;14.80;61.70;;;;;;5036838;28;20434;-52
2023/02/12 02:26:32;;;;;;;1.10;1.10;;;14.70;61.90;;;;;;5049214;28;20111;-49
2023/02/12 02:29:01;;;;;;;0.82;0.82;;;14.70;61.80;;;;;;5049615;28;22865;-48
2023/02/12 02:31:42;;;;;;;0.80;0.80;;;14.80;61.70;;;;;;5049415;28;20055;-33
2023/02/12 02:34:15;;;;;;;0.70;0.70;;;14.70;61.70;;;;;;5049629;28;20125;-45
2023/02/12 02:37:13;;;;;;;0.90;0.90;;;14.70;61.70;;;;;;5048696;28;20048;-42
2023/02/12 02:39:49;;;;;;;0.80;0.80;;;14.80;61.60;;;;;;5050802;28;20401;-32
2023/02/12 02:42:28;;;;;;;0.90;0.90;;;14.80;61.40;;;;;;5053369;28;20049;-46
2023/02/12 02:44:55;;;;;;;0.90;0.90;;;14.90;61.30;;;;;;5052463;28;20048;-44
2023/02/12 02:47:23;;;;;;;0.73;0.73;;;14.90;61.00;;;;;;5048749;28;20048;-51
2023/02/12 02:50:01;;;;;;;0.80;0.80;;;14.90;61.00;;;;;;5051147;28;20478;-35
2023/02/12 02:52:36;;;;;;;0.73;0.73;;;14.90;61.20;;;;;;5030384;28;20048;-48
2023/02/12 02:55:05;;;;;;;1.10;1.10;;;14.80;61.50;;;;;;5034812;28;20083;-46
2023/02/12 02:57:38;;;;;;;0.80;0.80;;;14.80;61.40;;;;;;5036861;28;20050;-40
2023/02/12 03:00:27;;;;;;;0.80;0.80;;;14.80;61.40;;;;;;5048618;28;20044;-51
2023/02/12 03:02:59;;;;;;;1.02;1.02;;;14.80;62.30;;;;;;5044656;28;20101;-46
2023/02/12 03:05:51;;;;;;;1.10;1.10;;;14.70;61.70;;;;;;5049603;28;20045;-42
2023/02/12 03:08:22;;;;;;;1.00;1.00;;;14.90;61.30;;;;;;5045287;28;20129;-30
2023/02/12 03:10:56;;;;;;;1.20;1.20;;;14.80;61.10;;;;;;5046593;28;20037;-46
2023/02/12 03:13:27;;;;;;;1.20;1.20;;;14.70;61.40;;;;;;5036750;28;20053;-48
2023/02/12 03:15:57;;;;;;;1.00;1.00;;;14.70;61.40;;;;;;5051271;28;20044;-49
2023/02/12 03:18:35;;;;;;;1.00;1.00;;;14.70;61.70;;;;;;5048242;28;20087;-49
2023/02/12 03:21:04;;;;;;;1.02;1.02;;;14.60;61.80;;;;;;5043135;28;20035;-49
2023/02/12 03:23:42;;;;;;;0.88;0.88;;;14.70;61.90;;;;;;5050882;28;20048;-35
2023/02/12 03:26:13;;;;;;;1.00;1.00;;;14.70;61.70;;;;;;5046767;28;20124;-34
2023/02/12 03:28:39;;;;;;;1.00;1.00;;;14.70;61.70;;;;;;5051701;28;20049;-45
2023/02/12 03:31:10;;;;;;;0.88;0.88;;;14.70;61.40;;;;;;5026224;28;20125;-41
2023/02/12 03:33:36;;;;;;;1.10;1.10;;;14.70;61.70;;;;;;5046952;28;20076;-41
2023/02/12 03:36:07;;;;;;;0.95;0.95;;;14.70;61.70;;;;;;5049063;28;22473;-33
2023/02/12 03:38:37;;;;;;;1.00;1.00;;;14.70;61.70;;;;;;5030415;28;20120;-33
2023/02/12 03:41:13;;;;;;;0.95;0.95;;;14.70;61.30;;;;;;5029531;28;20153;-41
2023/02/12 03:43:44;;;;;;;1.10;1.00;;;14.80;61.30;;;;;;5039706;28;20137;-41
2023/02/12 03:46:14;;;;;;;0.90;0.90;;;14.70;61.60;;;;;;5048214;28;20127;-27
2023/02/12 03:49:02;;;;;;;0.80;0.80;;;14.70;61.50;;;;;;5049319;28;20498;-49
2023/02/12 03:51:38;;;;;;;0.88;0.88;;;14.70;61.60;;;;;;5043995;28;20047;-34
2023/02/12 03:54:04;;;;;;;1.15;1.15;;;14.70;61.50;;;;;;5046641;28;20509;-47
2023/02/12 03:56:51;;;;;;;0.90;0.90;;;14.70;61.60;;;;;;5048685;28;20103;-51
2023/02/12 03:59:17;;;;;;;0.90;0.90;;;14.70;61.70;;;;;;5050440;28;20131;-43
2023/02/12 04:01:43;;;;;;;0.98;0.98;;;14.70;61.60;;;;;;5047787;28;20085;-50
2023/02/12 04:04:08;;;;;;;1.13;1.13;;;14.70;61.40;;;;;;5046060;28;20052;-35
2023/02/12 04:06:34;;;;;;;0.95;0.95;;;14.70;62.10;;;;;;5050956;28;20498;-33
2023/02/12 04:09:05;;;;;;;1.00;1.00;;;14.70;61.50;;;;;;5049625;28;20094;-43
2023/02/12 04:11:52;;;;;;;0.88;0.88;;;14.70;61.40;;;;;;5047853;28;20070;-41
2023/02/12 04:14:39;;;;;;;0.80;0.80;;;14.80;61.30;;;;;;5047151;28;20528;-32
2023/02/12 04:17:09;;;;;;;0.88;0.88;;;14.80;61.00;;;;;;5047739;28;20479;-36
2023/02/12 04:20:09;;;;;;;1.20;1.20;;;14.70;61.10;;;;;;5049530;28;20462;-40
2023/02/12 04:22:49;;;;;;;1.10;1.10;;;14.70;61.30;;;;;;5046993;28;20682;-51
2023/02/12 04:25:23;;;;;;;1.00;1.00;;;14.60;61.60;;;;;;5060434;28;20049;-39
2023/02/12 04:28:05;;;;;;;1.10;1.10;;;14.80;61.30;;;;;;5045343;28;20037;-50
2023/02/12 04:30:52;;;;;;;0.98;0.98;;;14.80;61.20;;;;;;5050867;28;20056;-48
2023/02/12 04:33:18;;;;;;;1.00;1.00;;;14.70;61.20;;;;;;5037135;28;20068;-44
2023/02/12 04:36:08;;;;;;;1.00;1.00;;;14.60;61.60;;;;;;5048635;28;20060;-50
2023/02/12 04:38:39;;;;;;;1.00;1.00;;;14.70;61.40;;;;;;5049003;28;20044;-43
2023/02/12 04:41:05;;;;;;;1.13;1.13;;;14.70;61.50;;;;;;5033758;28;20098;-39
2023/02/12 04:43:33;;;;;;;1.02;1.02;;;14.70;61.40;;;;;;5051463;28;20270;-50
2023/02/12 04:45:59;;;;;;;1.10;1.10;;;14.70;62.20;;;;;;5050286;28;20063;-43
2023/02/12 04:48:25;;;;;;;1.00;1.00;;;14.70;61.40;;;;;;5050078;28;20067;-34
2023/02/12 04:50:50;;;;;;;1.00;1.00;;;14.60;61.50;;;;;;5051613;28;20141;-38
2023/02/12 04:53:16;;;;;;;0.80;0.80;;;14.70;61.00;;;;;;5050671;28;20076;-42
2023/02/12 04:55:42;;;;;;;0.93;0.93;;;14.60;61.40;;;;;;5050353;28;20132;-24
2023/02/12 04:58:07;;;;;;;0.90;0.90;;;14.70;61.40;;;;;;5051108;28;20531;-42
2023/02/12 05:00:33;;;;;;;1.13;1.13;;;14.70;61.30;;;;;;5051330;28;20041;-34
2023/02/12 05:02:58;;;;;;;1.10;1.10;;;14.60;61.10;;;;;;5050881;28;20468;-37
2023/02/12 05:05:24;;;;;;;1.00;1.00;;;14.60;61.40;;;;;;5052158;28;20044;-43
2023/02/12 05:07:50;;;;;;;1.02;1.02;;;14.60;61.40;;;;;;5049135;28;20048;-56
2023/02/12 05:10:15;;;;;;;0.95;0.95;;;14.60;61.50;;;;;;5050559;28;20049;-49
2023/02/12 05:12:41;;;;;;;0.93;0.93;;;14.50;61.50;;;;;;5048801;28;20583;-45
2023/02/12 05:15:08;;;;;;;0.90;0.90;;;14.50;61.60;;;;;;5051328;28;21062;-33
2023/02/12 05:17:33;;;;;;;1.08;1.08;;;14.60;61.40;;;;;;5051402;28;20037;-37
2023/02/12 05:19:59;;;;;;;0.98;0.98;;;14.60;61.50;;;;;;5048329;28;20060;-37
2023/02/12 05:22:24;;;;;;;1.00;1.00;;;14.50;61.60;;;;;;5051306;28;20045;-46
2023/02/12 05:24:50;;;;;;;1.00;1.00;;;14.60;61.50;;;;;;5049763;28;20049;-37
2023/02/12 05:27:16;;;;;;;1.00;1.00;;;14.60;61.40;;;;;;5049245;28;20048;-34
2023/02/12 05:29:41;;;;;;;1.10;1.10;;;14.60;61.40;;;;;;5050675;28;20124;-36
2023/02/12 05:32:07;;;;;;;1.10;1.10;;;14.50;62.00;;;;;;5047202;28;20075;-38
2023/02/12 05:34:33;;;;;;;1.00;1.00;;;14.50;61.70;;;;;;5049104;28;20552;-36
2023/02/12 05:36:58;;;;;;;1.17;1.17;;;14.60;61.50;;;;;;5050445;28;20054;-50
2023/02/12 05:39:24;;;;;;;1.02;1.02;;;14.50;61.40;;;;;;5049650;28;20509;-40
2023/02/12 05:41:49;;;;;;;1.17;1.17;;;14.50;61.70;;;;;;5050022;28;20056;-34
2023/02/12 05:44:15;;;;;;;1.02;1.02;;;14.50;61.70;;;;;;5048655;28;20543;-50
2023/02/12 05:46:41;;;;;;;0.98;0.98;;;14.50;61.30;;;;;;5050736;28;20044;-40
2023/02/12 05:49:07;;;;;;;1.08;1.08;;;14.50;61.60;;;;;;5048140;28;20033;-52
2023/02/12 05:51:33;;;;;;;1.05;1.05;;;14.60;61.40;;;;;;5049374;28;20518;-49
2023/02/12 05:54:00;;;;;;;1.10;1.10;;;14.50;61.40;;;;;;5049967;28;20033;-42
2023/02/12 05:56:27;;;;;;;1.20;1.10;;;14.50;61.30;;;;;;5050831;28;20077;-51
2023/02/12 05:58:58;;;;;;;1.10;1.10;;;14.60;61.10;;;;;;5043596;28;20086;-40
2023/02/12 06:01:25;;;;;;;0.80;0.80;;;14.60;61.30;;;;;;5049653;28;20051;-42
2023/02/12 06:03:51;;;;;;;1.13;1.13;;;14.50;61.30;;;;;;5041114;28;20041;-36
2023/02/12 06:06:16;;;;;;;1.30;1.20;;;14.50;61.50;;;;;;5053489;28;20043;-44
2023/02/12 06:08:42;;;;;;;1.10;1.10;;;14.40;61.90;;;;;;5050260;28;20045;-50
2023/02/12 06:11:10;;;;;;;1.00;1.00;;;14.30;62.10;;;;;;5064509;28;20123;-38
2023/02/12 06:13:36;;;;;;;1.15;1.15;;;14.30;62.10;;;;;;5050043;28;20234;-36
2023/02/12 06:16:01;;;;;;;1.23;1.23;;;14.30;62.10;;;;;;5047369;28;20094;-51
2023/02/12 06:18:27;;;;;;;1.13;1.13;;;14.40;61.90;;;;;;5049026;28;20056;-48
2023/02/12 06:20:55;;;;;;;1.10;1.10;;;14.30;62.00;;;;;;5049842;28;20205;-21
2023/02/12 06:23:22;;;;;;;1.25;1.25;;;14.40;61.40;;;;;;5050760;28;20043;-46
2023/02/12 06:25:48;;;;;;;1.25;1.25;;;14.40;61.50;;;;;;5049300;28;20521;-41
2023/02/12 06:28:14;;;;;;;1.25;1.25;;;14.50;61.30;;;;;;5046919;28;20049;-52
2023/02/12 06:30:39;;;;;;;1.10;1.10;;;14.40;61.50;;;;;;5049194;28;20057;-40
2023/02/12 06:33:05;;;;;;;1.20;1.20;;;14.40;61.50;;;;;;5047671;28;20044;-49
2023/02/12 06:35:33;;;;;;;1.17;1.17;;;14.40;61.50;;;;;;5049439;28;20040;-42
2023/02/12 06:37:58;;;;;;;1.10;1.10;;;14.50;61.20;;;;;;5047795;28;20063;-39
2023/02/12 06:40:24;;;;;;;1.38;1.38;;;14.50;61.30;;;;;;5046824;28;20048;-50
2023/02/12 06:42:50;;;;;;;1.17;1.17;;;14.30;61.80;;;;;;5047765;28;20095;-52
2023/02/12 06:45:15;;;;;;;1.02;1.02;;;14.20;62.70;;;;;;5048777;28;20041;-50
2023/02/12 06:47:41;;;;;;;1.00;1.00;;;14.20;62.30;;;;;;5049205;28;20203;-52
2023/02/12 06:50:07;;;;;;;0.90;0.90;;;14.20;62.40;;;;;;5046176;28;20072;-51
2023/02/12 06:52:32;;;;;;;1.05;1.05;;;14.20;62.50;;;;;;5049089;28;20063;-50
2023/02/12 06:54:58;;;;;;;0.98;0.98;;;14.30;62.00;;;;;;5046300;28;20490;-47
2023/02/12 06:57:23;;;;;;;1.00;1.00;;;14.20;62.30;;;;;;5047319;28;20059;-50
2023/02/12 06:59:49;;;;;;;0.90;0.90;;;14.40;61.70;;;;;;5048366;28;20048;-44
2023/02/12 07:02:14;;;;;;;1.13;1.13;;;14.40;61.60;;;;;;5046621;28;20037;-32
2023/02/12 07:04:40;;;;;;;1.20;1.20;;;14.20;61.70;;;;;;5061854;28;20056;-41
2023/02/12 07:07:06;;;;;;;0.95;0.95;;;14.20;62.20;;;;;;5046999;28;20036;-44
2023/02/12 07:09:31;;;;;;;1.02;1.00;;;14.20;62.40;;;;;;5049958;28;20708;-48
2023/02/12 07:11:58;;;;;;;1.00;1.00;;;14.20;62.30;;;;;;5047092;28;20076;-48
2023/02/12 07:14:23;;;;;;;0.90;0.90;;;14.20;62.10;;;;;;5048682;28;20116;-43
2023/02/12 07:16:49;;;;;;;1.02;1.02;;;14.20;62.30;;;;;;5048050;28;20043;-33
2023/02/12 07:19:15;;;;;;;1.10;1.10;;;14.10;62.30;;;;;;5047209;28;20048;-46
2023/02/12 07:21:41;;;;;;;1.10;1.10;;;14.00;62.90;;;;;;5046888;28;20037;-49
2023/02/12 07:24:10;;;;;;;1.13;1.10;;;14.00;63.10;;;;;;5045880;28;20084;-50
2023/02/12 07:26:36;;;;;;;1.17;1.17;;;14.00;62.90;;;;;;5047704;28;21675;-29
2023/02/12 07:29:02;;;;;;;1.15;1.15;;;14.00;62.80;;;;;;5048181;28;20059;-43
2023/02/12 07:31:28;;;;;;;0.90;0.90;;;14.10;62.40;;;;;;5047620;28;20051;-39
2023/02/12 07:33:54;;;;;;;1.30;1.30;;;14.00;62.60;;;;;;5048183;28;20070;-45
2023/02/12 07:36:20;;;;;;;0.98;0.98;;;13.90;63.00;;;;;;5046377;28;20592;-37
2023/02/12 07:38:45;;;;;;;0.75;0.75;;;13.90;63.00;;;;;;5048342;28;20056;-31
2023/02/12 07:41:19;;;;;;;1.17;1.17;;;13.90;63.20;;;;;;5047195;28;20044;-35
2023/02/12 07:43:45;;;;;;;1.40;1.40;;;13.90;63.00;;;;;;5048087;28;20075;-48
2023/02/12 07:46:13;;;;;;;1.27;1.20;;;13.90;63.00;;;;;;5045962;28;20044;-37
2023/02/12 07:48:38;;;;;;;1.10;1.10;;;13.90;63.00;;;;;;5046499;28;20040;-46
2023/02/12 07:51:09;;;;;;;1.10;1.10;;;13.90;63.00;;;;;;5046660;28;20047;-38
2023/02/12 07:53:34;;;;;;;1.38;1.35;;;13.90;63.90;;;;;;5048958;28;20153;-41
2023/02/12 07:56:21;;;;;;;1.23;1.23;;;13.90;62.90;;;;;;5046165;28;20672;-44
2023/02/12 07:58:47;;;;;;;1.00;1.00;;;13.90;63.10;;;;;;5048346;28;20154;-47
2023/02/12 08:01:21;;;;;;;1.05;1.05;;;13.90;63.20;;;;;;5047360;28;20134;-33
2023/02/12 08:03:46;;;;;;;1.10;1.10;;;13.90;62.90;;;;;;5051138;28;20091;-32
2023/02/12 08:06:15;;;;;;;1.00;1.00;;;13.90;62.90;;;;;;5039446;28;20037;-34
2023/02/12 08:08:40;;;;;;;1.30;1.30;;;13.80;62.80;;;;;;5045805;28;20040;-33
2023/02/12 08:11:07;;;;;;;1.10;1.10;;;13.80;63.00;;;;;;5047517;28;20048;-27
2023/02/12 08:13:34;;;;;;;1.23;1.23;;;13.80;63.10;;;;;;5046939;28;20029;-20
2023/02/12 08:16:04;;;;;;;1.25;1.25;;;13.80;63.00;;;;;;5046532;28;20044;-20
2023/02/12 08:18:30;;;;;;;1.33;1.33;;;13.80;63.00;;;;;;5046620;28;20048;-30
2023/02/12 08:21:19;;;;;;;1.30;1.30;;;13.80;62.80;;;;;;5046754;28;20049;-18
2023/02/12 08:23:45;;;;;;;1.20;1.20;;;13.80;62.80;;;;;;5048117;28;20047;-19
2023/02/12 08:26:12;;;;;;;1.27;1.27;;;13.80;62.80;;;;;;5045302;28;20044;-24
2023/02/12 08:28:40;;;;;;;1.10;1.10;;;13.80;62.90;;;;;;5050024;28;20159;-26
2023/02/12 08:31:09;;;;;;;0.80;0.80;;;13.80;62.70;;;;;;5047218;28;20119;-35
2023/02/12 08:33:34;;;;;;;0.88;0.88;;;13.80;62.70;;;;;;5046992;28;20041;-24
2023/02/12 08:36:11;;;;;;;1.10;1.10;;;13.80;62.80;;;;;;5046907;28;20041;-23
2023/02/12 08:38:37;;;;;;;0.85;0.85;;;13.80;62.70;;;;;;5046232;28;20069;-39
2023/02/12 08:41:07;;;;;;;1.00;1.00;;;13.90;62.90;;;;;;5045810;28;20041;-29
2023/02/12 08:43:33;;;;;;;1.10;1.10;;;13.90;62.70;;;;;;5045491;28;20531;-21
2023/02/12 08:46:10;;;;;;;0.90;0.90;;;13.80;62.70;;;;;;5048341;28;20044;-36
2023/02/12 08:48:35;;;;;;;0.70;0.70;;;13.80;62.90;;;;;;5046697;28;20064;-39
2023/02/12 08:51:11;;;;;;;1.10;1.10;;;13.90;62.70;;;;;;5046910;28;20366;-27
2023/02/12 08:53:37;;;;;;;1.02;1.02;;;13.80;62.70;;;;;;5047013;28;20510;-25
2023/02/12 08:56:03;;;;;;;0.90;0.90;;;13.90;62.60;;;;;;5045374;28;20035;-14
2023/02/12 08:58:29;;;;;;;1.08;1.08;;;13.90;62.70;;;;;;5046738;28;20028;-20
2023/02/12 09:00:55;;;;;;;1.35;1.25;;;13.80;62.70;;;;;;5045139;28;20033;-28
2023/02/12 09:03:20;;;;;;;1.10;1.10;;;13.90;62.80;;;;;;5046551;28;20059;-31
2023/02/12 09:05:46;;;;;;;0.90;0.90;;;13.90;62.70;;;;;;5046654;28;20052;-35
2023/02/12 09:08:11;;;;;;;1.00;1.00;;;13.90;62.70;;;;;;5045504;28;20090;-20
2023/02/12 09:10:41;;;;;;;0.90;0.90;;;13.80;62.60;;;;;;5047446;28;20536;-28
2023/02/12 09:13:07;;;;;;;1.10;1.10;;;13.90;62.80;;;;;;5044979;28;20037;-18
2023/02/12 09:15:45;;;;;;;1.00;1.00;;;13.90;62.60;;;;;;5046589;28;20565;-27
2023/02/12 09:18:12;;;;;;;0.85;0.85;;;13.90;62.50;;;;;;5043664;28;20045;-42
2023/02/12 09:20:38;;;;;;;0.98;0.98;;;13.80;62.60;;;;;;5045707;28;20045;-37
2023/02/12 09:23:05;;;;;;;1.00;1.00;;;13.90;62.60;;;;;;5046204;28;20036;-12
2023/02/12 09:25:33;;;;;;;1.02;1.02;;;13.90;62.70;;;;;;5046293;28;20049;-17
2023/02/12 09:28:01;;;;;;;0.77;0.77;;;13.80;62.50;;;;;;5050035;28;21217;-21
2023/02/12 09:30:27;;;;;;;0.73;0.73;;;13.90;62.60;;;;;;5050258;28;20053;-23
2023/02/12 09:32:53;;;;;;;1.10;1.10;;;13.90;62.60;;;;;;5049301;28;20071;-38
2023/02/12 09:35:18;;;;;;;1.15;1.15;;;13.90;62.40;;;;;;5051065;28;20633;-24
2023/02/12 09:37:44;;;;;;;1.00;1.00;;;13.90;62.50;;;;;;5052513;28;20079;-26
2023/02/12 09:40:27;;;;;;;0.90;0.90;;;13.90;62.30;;;;;;5051986;28;20045;-30
2023/02/12 09:42:55;;;;;;;1.13;1.13;;;13.90;62.50;;;;;;5051044;28;20045;-23
2023/02/12 09:45:25;;;;;;;1.10;1.10;;;13.90;62.30;;;;;;5050411;28;20052;-28
2023/02/12 09:47:59;;;;;;;1.08;1.08;;;13.90;62.30;;;;;;5051283;28;20417;-20
2023/02/12 09:50:27;;;;;;;1.10;1.10;;;13.90;62.30;;;;;;5050362;28;20299;-21
2023/02/12 09:52:55;;;;;;;1.20;1.20;;;13.90;62.30;;;;;;5051244;28;20048;-17
2023/02/12 09:55:21;;;;;;;1.17;1.17;;;14.00;62.30;;;;;;5049923;28;20036;-17
2023/02/12 09:57:46;;;;;;;0.85;0.85;;;13.90;62.30;;;;;;5037126;28;20075;-24
2023/02/12 10:00:20;;;;;;;1.10;1.10;;;13.90;62.30;;;;;;5050021;28;20060;-34
2023/02/12 10:02:46;;;;;;;0.90;0.90;;;13.90;62.10;;;;;;5064609;28;20049;-20
2023/02/12 10:05:19;;;;;;;0.88;0.88;;;14.00;62.20;;;;;;5062699;28;20531;-39
2023/02/12 10:08:09;;;;;;;0.80;0.80;;;14.00;62.10;;;;;;5062183;28;20403;-23
2023/02/12 10:10:53;;;;;;;0.80;0.80;;;14.00;62.10;;;;;;5049853;28;20170;-18
2023/02/12 10:13:45;;;;;;;1.00;1.00;;;14.00;62.20;;;;;;5045618;28;20037;-23
2023/02/12 10:16:33;;;;;;;0.70;0.70;;;14.10;62.10;;;;;;5051363;28;20456;-24
2023/02/12 10:19:24;;;;;;;0.85;0.85;;;14.00;62.10;;;;;;5048840;28;20544;-34
2023/02/12 10:21:58;;;;;;;0.82;0.82;;;14.10;61.80;;;;;;5048608;28;20045;-23
2023/02/12 10:24:35;;;;;;;0.98;0.98;;;14.00;61.80;;;;;;5048281;28;20044;-18
2023/02/12 10:27:10;;;;;;;1.10;1.10;;;14.00;62.00;;;;;;5054695;28;20038;-23
2023/02/12 10:29:37;;;;;;;1.45;1.20;;;14.10;61.90;;;;;;5049591;28;20721;-19
2023/02/12 10:32:12;;;;;;;1.10;1.10;;;14.10;62.90;;;;;;5030442;28;20152;-25
2023/02/12 10:34:37;;;;;;;1.98;1.02;;;14.10;62.30;;;;;;5048021;28;20102;-18
2023/02/12 10:37:09;;;;;;;0.90;0.90;;;14.10;62.10;;;;;;5047881;28;20044;-23
2023/02/12 10:39:35;;;;;;;0.80;0.80;;;14.10;62.50;;;;;;5048654;28;20052;-18
2023/02/12 10:42:07;;;;;;;1.05;1.05;;;14.00;62.70;;;;;;5047356;28;20036;-27
2023/02/12 10:44:32;;;;;;;0.90;0.90;;;14.10;62.80;;;;;;5046667;28;20071;-27
2023/02/12 10:46:58;;;;;;;1.13;1.13;;;14.10;63.10;;;;;;5050006;28;20719;-17
2023/02/12 10:49:24;;;;;;;0.90;0.90;;;14.10;63.20;;;;;;5045477;28;20084;-29
2023/02/12 10:52:15;;;;;;;0.80;0.80;;;14.10;63.20;;;;;;5047515;28;20052;-36
2023/02/12 10:54:44;;;;;;;0.80;0.80;;;14.10;63.30;;;;;;5046657;28;20425;-23
2023/02/12 10:57:09;;;;;;;1.00;1.00;;;14.10;63.40;;;;;;5044976;28;20052;-25
2023/02/12 10:59:35;;;;;;;0.82;0.82;;;14.10;63.60;;;;;;5047818;28;20052;-36
2023/02/12 11:02:01;;;;;;;0.75;0.75;;;14.10;63.50;;;;;;5048940;28;20118;-33
2023/02/12 11:04:28;;;;;;;1.10;1.00;;;14.10;63.80;;;;;;5063702;28;20071;-20
2023/02/12 11:07:02;;;;;;;0.82;0.82;;;14.10;63.60;;;;;;5047391;28;20037;-18
2023/02/12 11:09:35;;;;;;;;;;;14.10;63.70;;;;;;5044843;28;20739;-18
2023/02/12 11:12:01;;;;;;;0.82;0.82;;;14.10;63.70;;;;;;5045332;28;19970;-43
2023/02/12 11:14:26;;;;;;;1.10;1.10;;;14.10;64.50;;;;;;5048556;28;20044;-26
2023/02/12 11:16:54;;;;;;;0.70;0.70;;;14.10;63.70;;;;;;5047441;28;20037;-26
2023/02/12 11:19:24;;;;;;;0.80;0.80;;;14.10;63.70;;;;;;5046625;28;20180;-22
2023/02/12 11:21:50;;;;;;;1.08;1.08;;;14.20;63.60;;;;;;5047339;28;20049;-24
2023/02/12 11:24:32;;;;;;;1.17;1.10;;;14.20;63.60;;;;;;5066812;28;20101;-42
2023/02/12 11:27:23;;;;;;;0.63;0.63;;;14.20;63.70;;;;;;5048413;28;20533;-32
2023/02/12 11:30:11;;;;;;;0.80;0.80;;;14.20;63.70;;;;;;5047959;28;20109;-21
2023/02/12 11:32:37;;;;;;;1.15;1.05;;;14.10;63.70;;;;;;5048406;28;20049;-18
2023/02/12 11:35:11;;;;;;;1.15;0.88;;;14.10;63.70;;;;;;5047958;28;20052;-30
2023/02/12 11:37:39;;;;;;;0.70;0.70;;;14.10;63.70;;;;;;5046545;28;20053;-17
2023/02/12 11:40:05;;;;;;;0.93;0.93;;;14.10;63.60;;;;;;5050991;28;20536;-31
2023/02/12 11:42:34;;;;;;;0.60;0.60;;;14.20;63.50;;;;;;5046719;28;20059;-19
2023/02/12 11:44:59;;;;;;;0.90;0.90;;;14.20;63.40;;;;;;5049056;28;20055;-24
2023/02/12 11:47:29;;;;;;;0.70;0.70;;;14.40;63.00;;;;;;5047882;28;20048;-29
2023/02/12 11:50:00;;;;;;;0.95;0.93;;;14.40;62.80;;;;;;5064577;28;20114;-24
2023/02/12 11:52:28;;;;;;;1.10;1.10;;;14.50;62.70;;;;;;5047211;28;20059;-18
2023/02/12 11:54:56;;;;;;;0.85;0.85;;;14.50;62.60;;;;;;5047165;28;20067;-24
2023/02/12 11:57:46;;;;;;;0.80;0.80;;;14.50;62.70;;;;;;5046541;28;20338;-24
2023/02/12 12:00:27;;;;;;;1.13;1.13;;;14.50;62.70;;;;;;4348042;28;10000712;-50
2023/02/12 12:03:01;;;;;;;0.70;0.70;;;14.60;62.30;;;;;;5043618;28;20117;-24
2023/02/12 12:05:34;;;;;;;1.10;1.10;;;14.60;62.30;;;;;;5053141;28;20040;-15
2023/02/12 12:08:02;;;;;;;0.95;0.88;;;14.70;62.40;;;;;;5047446;28;20045;-26
2023/02/12 12:10:48;;;;;;;0.88;0.88;;;14.70;62.30;;;;;;5021556;28;20044;-15
2023/02/12 12:13:23;;;;;;;0.80;0.80;;;14.80;62.20;;;;;;5045098;28;20049;-21
2023/02/12 12:22:05;;;;;;;1.10;1.10;;;14.80;62.20;;;;;;5042557;28;20218;-22
2023/02/12 12:24:35;;;;;;;1.20;1.20;;;14.80;62.20;;;;;;5000306;28;20304;-17
2023/02/12 12:27:23;;;;;;;1.00;1.00;;;14.80;63.10;;;;;;5006985;28;20042;-18
2023/02/12 12:29:54;;;;;;;1.02;1.02;;;14.80;62.40;;;;;;5019459;28;20049;-19
2023/02/12 12:32:20;;;;;;;0.90;0.90;;;14.80;62.30;;;;;;5022077;28;20052;-17
2023/02/12 12:34:48;;;;;;;1.00;1.00;;;14.80;62.30;;;;;;5009215;28;20045;-18
2023/02/12 12:37:34;;;;;;;1.20;1.20;;;14.80;62.30;;;;;;5019908;28;20991;-16
2023/02/12 12:40:06;;;;;;;1.10;1.10;;;14.80;62.30;;;;;;5021026;28;20393;-17
2023/02/12 12:42:57;;;;;;;1.10;1.10;;;14.80;62.30;;;;;;5022359;28;20044;-24
2023/02/12 12:45:59;;;;;;;1.30;1.30;;;14.80;62.40;;;;;;5012808;28;20605;-23
2023/02/12 12:48:39;;;;;;;0.95;0.95;;;14.80;62.30;;;;;;5022645;28;20041;-30
2023/02/12 12:51:50;;;;;;;0.95;0.95;;;14.90;62.40;;;;;;5012975;28;20049;-43
2023/02/12 12:54:32;;;;;;;0.95;0.80;;;14.90;62.30;;;;;;5007360;28;20096;-41
2023/02/12 12:57:04;;;;;;;1.27;1.20;;;14.90;62.30;;;;;;5023143;28;20099;-33
2023/02/12 12:59:45;;;;;;;0.93;0.93;;;14.90;62.20;;;;;;4996507;28;20037;-32
2023/02/12 13:02:32;;;;;;;1.80;1.17;;;14.90;62.20;;;;;;5044666;28;20056;-21
2023/02/12 13:05:06;;;;;;;1.00;1.00;;;14.90;62.10;;;;;;5050303;28;20041;-21
2023/02/12 13:07:38;;;;;;;;;;;14.90;62.90;;;;;;5050578;28;20493;-19
2023/02/12 13:10:28;;;;;;;0.85;0.85;;;14.90;62.00;;;;;;5049201;28;19915;-18
2023/02/12 13:13:00;;;;;;;0.80;0.80;;;14.90;61.90;;;;;;5050682;28;20040;-31